CYZY

Details ICAO CYZY (YZY)
Name MACKENZIE
Region Canada
Timezone America/Vancouver (UTC-8.0)
Plans Departing 11
Arriving 7
Stats Elevation 2,264 ft / 690 m (AMSL)
Location 55.304305° -123.132085°
Runways 1
Magnetic Variation 17.842° E
Sunrise 2017-12-11 16:31:02 UTC / 2017-12-11 08:31:02 Local
Sunset 2017-12-11 23:43:45 UTC / 2017-12-11 15:43:45 Local
Advertisement - Login to hide

Runways

ID Width Length Bearing (true) Bearing (mag) Surface Threshold Offset Overrun Length
16 100 ft / 30 m 4,994 ft / 1,522 m 185.95° 168.11° Asphalt 0 ft / 0 m 0 ft / 0 m
34 100 ft / 30 m 4,994 ft / 1,522 m 5.95° 348.11° Asphalt 0 ft / 0 m 0 ft / 0 m

Map

Weather


0- 5 10 15 20 25 30 35+ Temperature / ° C

Clouds and Precipitation
Forecast for 2017-12-12 00:00 UTC. Updated 2 hours ago

Ground ~20,000 ft ~40,000 ft Winds

METAR

CYZY 112100Z AUTO 14004KT 9SM CLR 01/M02 A3028 RMK SLP291

TAF

TAF CYZY 111838Z 1119/1207 VRB03KT P6SM SKC PROB30 1203/1207 1/2SM FZFG VV002 RMK FCST BASED ON AUTO OBS. NXT FCST BY 120100Z
Warning: Do not use this data for real-world aviation or navigation. No guarantee of current accuracy is given.